createdAt,value
2019-05-30T00:02:21.383Z,102027.44
2019-05-30T00:04:56.099Z,102024.62
2019-05-30T00:07:30.316Z,102020.78
2019-05-30T00:10:05.201Z,102019.72
2019-05-30T00:12:38.487Z,102019.33
2019-05-30T00:15:11.769Z,102021.03
2019-05-30T00:17:45.593Z,102019.39
2019-05-30T00:20:19.121Z,102012.56
2019-05-30T00:22:52.710Z,102008.08
2019-05-30T00:25:26.514Z,102003.23
2019-05-30T00:28:01.335Z,102002.78
2019-05-30T00:30:35.151Z,102005.59
2019-05-30T00:33:08.671Z,102006.05
2019-05-30T00:35:42.554Z,102009.42
2019-05-30T00:38:15.803Z,102002.64
2019-05-30T00:40:49.454Z,101999.56
2019-05-30T00:43:23.539Z,101999.83
2019-05-30T00:45:57.942Z,102005.39
2019-05-30T00:48:42.975Z,101996.45
2019-05-30T00:51:28.295Z,101993.89
2019-05-30T00:54:13.792Z,101988.12
2019-05-30T00:56:56.690Z,101985.53
2019-05-30T00:59:39.356Z,101983.34
2019-05-30T01:02:30.014Z,101987.69
2019-05-30T01:05:14.627Z,101979.36
2019-05-30T01:07:48.537Z,101974.02
2019-05-30T01:10:32.826Z,101977.40
2019-05-30T01:13:07.227Z,101972.80
2019-05-30T01:15:41.305Z,101974.66
2019-05-30T01:18:15.093Z,101974.34
2019-05-30T01:20:49.180Z,101967.50
2019-05-30T01:23:36.474Z,101970.69
2019-05-30T01:26:21.111Z,101974.19
2019-05-30T01:28:55.076Z,101968.32
2019-05-30T01:31:38.121Z,101967.11
2019-05-30T01:34:11.821Z,101966.53
2019-05-30T01:36:45.113Z,101959.89
2019-05-30T01:39:27.520Z,101955.17
2019-05-30T01:42:01.904Z,101954.20
2019-05-30T01:44:35.246Z,101954.85
2019-05-30T01:47:17.140Z,101950.83
2019-05-30T01:49:50.467Z,101944.19
2019-05-30T01:52:24.413Z,101942.52
2019-05-30T01:54:58.540Z,101945.20
2019-05-30T01:57:41.183Z,101928.22
2019-05-30T02:00:21.173Z,101938.25
2019-05-30T02:03:09.653Z,101929.63
2019-05-30T02:05:43.285Z,101926.50
2019-05-30T02:08:16.794Z,101921.75
2019-05-30T02:10:50.447Z,101925.08
2019-05-30T02:13:24.348Z,101920.66
2019-05-30T02:15:59.495Z,101926.22
2019-05-30T02:18:33.154Z,101914.56
2019-05-30T02:21:06.432Z,101917.58
2019-05-30T02:23:40.277Z,101914.81
2019-05-30T02:26:13.496Z,101919.20
2019-05-30T02:28:48.492Z,101916.22
2019-05-30T02:31:38.282Z,101919.06
2019-05-30T02:33:58.021Z,101920.32
2019-05-30T02:36:31.837Z,101911.16
2019-05-30T02:39:09.681Z,101904.27
2019-05-30T02:41:42.928Z,101911.30
2019-05-30T02:44:27.275Z,101914.77
2019-05-30T02:47:01.458Z,101912.73
2019-05-30T02:49:36.052Z,101907.29
2019-05-30T02:52:10.825Z,101910.47
2019-05-30T02:54:44.931Z,101904.22
2019-05-30T02:57:18.311Z,101908.14
2019-05-30T02:59:51.940Z,101903.31
2019-05-30T03:02:25.178Z,101910.59
2019-05-30T03:04:58.340Z,101899.62
2019-05-30T03:07:43.278Z,101899.39
2019-05-30T03:10:17.202Z,101902.50
2019-05-30T03:13:01.744Z,101907.05
2019-05-30T03:15:52.778Z,101896.82
2019-05-30T03:18:26.088Z,101906.77
2019-05-30T03:20:59.639Z,101898.16
2019-05-30T03:23:32.711Z,101895.19
2019-05-30T03:26:09.738Z,101897.45
2019-05-30T03:28:42.024Z,101894.23
2019-05-30T03:31:27.302Z,101888.95
2019-05-30T03:34:05.761Z,101894.14
2019-05-30T03:36:46.661Z,101880.47
2019-05-30T03:39:28.678Z,101889.28
2019-05-30T03:42:04.418Z,101893.71
2019-05-30T03:44:49.671Z,101882.95
2019-05-30T03:47:25.155Z,101887.79
2019-05-30T03:50:00.585Z,101883.84
2019-05-30T03:52:34.303Z,101887.08
2019-05-30T03:55:23.713Z,101888.91
2019-05-30T03:58:07.782Z,101886.63
2019-05-30T04:00:45.830Z,101883.52
2019-05-30T04:03:47.871Z,101882.27
2019-05-30T04:06:30.215Z,101885.35
2019-05-30T04:09:09.836Z,101878.09
2019-05-30T04:11:49.237Z,101877.47
2019-05-30T04:14:26.535Z,101882.45
2019-05-30T04:17:00.499Z,101876.31
2019-05-30T04:19:34.158Z,101874.41
2019-05-30T04:22:07.313Z,101881.37
2019-05-30T04:24:41.718Z,101878.23
2019-05-30T04:27:23.696Z,101879.45
2019-05-30T04:29:57.227Z,101877.52
2019-05-30T04:32:30.744Z,101880.30
2019-05-30T04:35:03.915Z,101879.05
2019-05-30T04:37:46.850Z,101879.52
2019-05-30T04:40:21.160Z,101878.88
2019-05-30T04:42:54.769Z,101880.64
2019-05-30T04:45:28.614Z,101879.20
2019-05-30T04:48:01.489Z,101880.19
2019-05-30T04:50:34.818Z,101881.00
2019-05-30T04:53:10.151Z,101879.08
2019-05-30T04:55:44.554Z,101874.22
2019-05-30T04:58:21.046Z,101874.62
2019-05-30T05:00:53.409Z,101873.77
2019-05-30T05:03:44.262Z,101872.01
2019-05-30T05:06:13.783Z,101875.48
2019-05-30T05:08:47.225Z,101871.12
2019-05-30T05:11:22.949Z,101867.73
2019-05-30T05:13:55.597Z,101865.30
2019-05-30T05:16:35.575Z,101868.70
2019-05-30T05:19:14.888Z,101866.31
2019-05-30T05:21:48.109Z,101863.56
2019-05-30T05:24:21.944Z,101861.30
2019-05-30T05:26:55.611Z,101866.79
2019-05-30T05:29:29.139Z,101863.75
2019-05-30T05:32:02.594Z,101862.77
2019-05-30T05:34:45.848Z,101862.59
2019-05-30T05:37:19.170Z,101858.73
2019-05-30T05:39:52.863Z,101858.39
2019-05-30T05:42:28.493Z,101854.27
2019-05-30T05:45:01.827Z,101850.84
2019-05-30T05:47:35.508Z,101846.99
2019-05-30T05:50:09.621Z,101846.34
2019-05-30T05:52:53.161Z,101842.91
2019-05-30T05:55:26.919Z,101841.02
2019-05-30T05:58:09.863Z,101852.23
2019-05-30T06:00:43.129Z,101854.78
2019-05-30T06:03:18.548Z,101854.03
2019-05-30T06:05:53.581Z,101854.33
2019-05-30T06:08:42.311Z,101855.91
2019-05-30T06:11:16.611Z,101863.64
2019-05-30T06:13:50.832Z,101866.11
2019-05-30T06:16:24.189Z,101864.73
2019-05-30T06:18:57.556Z,101865.58
2019-05-30T06:21:30.879Z,101874.11
2019-05-30T06:24:12.775Z,101866.83
2019-05-30T06:26:46.329Z,101869.30
2019-05-30T06:29:20.125Z,101874.98
2019-05-30T06:31:53.375Z,101871.23
2019-05-30T06:34:38.086Z,101875.80
2019-05-30T06:37:01.969Z,101868.80
2019-05-30T06:39:35.455Z,101872.42
2019-05-30T06:42:09.192Z,101868.73
2019-05-30T06:44:42.758Z,101864.06
2019-05-30T06:47:16.405Z,101871.00
2019-05-30T06:49:49.970Z,101866.26
2019-05-30T06:52:27.079Z,101869.41
2019-05-30T06:55:00.795Z,101868.36
2019-05-30T06:57:34.116Z,101876.17
2019-05-30T07:00:08.034Z,101873.29
2019-05-30T07:02:41.631Z,101875.22
2019-05-30T07:05:15.648Z,101870.77
2019-05-30T07:07:58.015Z,101868.70
2019-05-30T07:10:31.703Z,101872.53
2019-05-30T07:13:05.750Z,101876.75
2019-05-30T07:15:55.176Z,101878.96
2019-05-30T07:18:33.364Z,101875.77
2019-05-30T07:21:03.900Z,101874.54
2019-05-30T07:23:39.524Z,101878.09
2019-05-30T07:26:15.760Z,101883.39
2019-05-30T07:28:49.567Z,101879.72
2019-05-30T07:31:24.035Z,101881.98
2019-05-30T07:34:07.405Z,101882.95
2019-05-30T07:36:41.365Z,101886.90
2019-05-30T07:39:15.269Z,101884.58
2019-05-30T07:42:06.438Z,101882.22
2019-05-30T07:44:50.451Z,101889.92
2019-05-30T07:47:25.996Z,101888.38
2019-05-30T07:50:10.462Z,101895.40
2019-05-30T07:52:56.043Z,101891.33
2019-05-30T07:55:40.020Z,101887.34
2019-05-30T07:58:13.338Z,101885.06
2019-05-30T08:00:47.205Z,101892.05
2019-05-30T08:03:21.023Z,101890.39
2019-05-30T08:06:06.267Z,101890.70
2019-05-30T08:08:48.778Z,101892.09
2019-05-30T08:11:22.100Z,101896.28
2019-05-30T08:13:55.449Z,101884.44
2019-05-30T08:16:29.302Z,101893.29
2019-05-30T08:19:14.550Z,101890.28
2019-05-30T08:21:48.158Z,101896.75
2019-05-30T08:24:21.757Z,101894.64
2019-05-30T08:26:55.725Z,101901.81
2019-05-30T08:29:30.130Z,101897.52
2019-05-30T08:32:03.560Z,101901.70
2019-05-30T08:34:36.813Z,101901.56
2019-05-30T08:37:20.896Z,101905.76
2019-05-30T08:39:54.867Z,101909.88
2019-05-30T08:42:29.488Z,101912.64
2019-05-30T08:45:02.858Z,101905.19
2019-05-30T08:47:37.852Z,101914.55
2019-05-30T08:50:12.128Z,101913.38
2019-05-30T08:52:46.031Z,101912.47
2019-05-30T08:55:21.015Z,101906.81
2019-05-30T08:57:54.770Z,101905.88
2019-05-30T09:00:28.943Z,101907.53
2019-05-30T09:03:10.905Z,101909.53
2019-05-30T09:05:59.232Z,101909.00
2019-05-30T09:08:19.669Z,101908.22
2019-05-30T09:10:53.028Z,101905.88
2019-05-30T09:13:26.650Z,101901.70
2019-05-30T09:16:01.727Z,101908.59
2019-05-30T09:18:45.379Z,101897.58
2019-05-30T09:21:18.924Z,101898.05
2019-05-30T09:23:52.192Z,101898.05
2019-05-30T09:26:25.529Z,101890.64
2019-05-30T09:28:59.040Z,101887.57
2019-05-30T09:31:32.373Z,101884.55
2019-05-30T09:34:05.798Z,101886.78
2019-05-30T09:36:48.973Z,101877.72
2019-05-30T09:39:32.291Z,101874.09
2019-05-30T09:42:05.734Z,101886.57
2019-05-30T09:44:40.532Z,101886.57
2019-05-30T09:47:14.641Z,101899.65
2019-05-30T09:49:48.609Z,101899.65
2019-05-30T09:52:30.968Z,101902.72
2019-05-30T09:55:05.054Z,101899.95
2019-05-30T09:57:53.395Z,101894.39
2019-05-30T10:00:27.168Z,101900.44
2019-05-30T10:03:02.875Z,101900.39
2019-05-30T10:05:52.579Z,101893.28
2019-05-30T10:08:26.345Z,101896.46
2019-05-30T10:10:59.842Z,101894.36
2019-05-30T10:13:33.926Z,101894.36
2019-05-30T10:16:16.675Z,101890.94
2019-05-30T10:18:58.986Z,101890.34
2019-05-30T10:21:32.116Z,101886.27
2019-05-30T10:24:05.815Z,101886.27
2019-05-30T10:26:37.876Z,101897.48
2019-05-30T10:29:11.834Z,101887.05
2019-05-30T10:31:46.394Z,101887.05
2019-05-30T10:34:20.902Z,101891.08
2019-05-30T10:36:54.141Z,101900.83
2019-05-30T10:39:28.069Z,101900.19
2019-05-30T10:42:01.545Z,101906.62
2019-05-30T10:44:35.084Z,101889.38
2019-05-30T10:47:08.801Z,101883.98
2019-05-30T10:49:41.992Z,101886.21
2019-05-30T10:52:15.663Z,101885.72
2019-05-30T10:54:49.563Z,101880.83
2019-05-30T10:57:39.709Z,101887.70
2019-05-30T11:00:14.723Z,101882.11
2019-05-30T11:02:49.455Z,101891.62
2019-05-30T11:05:23.064Z,101889.67
2019-05-30T11:08:06.105Z,101889.62
2019-05-30T11:10:39.271Z,101887.27
2019-05-30T11:13:13.915Z,101890.40
2019-05-30T11:15:48.750Z,101893.20
2019-05-30T11:18:22.663Z,101897.20
2019-05-30T11:20:56.522Z,101888.23
2019-05-30T11:23:29.866Z,101892.02
2019-05-30T11:26:04.944Z,101900.51
2019-05-30T11:28:38.931Z,101899.11
2019-05-30T11:31:12.666Z,101898.16
2019-05-30T11:33:46.187Z,101900.92
2019-05-30T11:36:19.761Z,101897.94
2019-05-30T11:38:55.356Z,101902.45
2019-05-30T11:41:37.815Z,101902.05
2019-05-30T11:44:11.133Z,101913.56
2019-05-30T11:46:44.666Z,101904.64
2019-05-30T11:49:18.063Z,101901.41
2019-05-30T11:51:51.688Z,101907.11
2019-05-30T11:54:25.012Z,101915.08
2019-05-30T11:57:06.853Z,101910.86
2019-05-30T11:59:40.658Z,101911.01
2019-05-30T12:02:14.187Z,101915.30
2019-05-30T12:04:47.523Z,101916.14
2019-05-30T12:07:35.452Z,101916.22
2019-05-30T12:09:56.894Z,101914.86
2019-05-30T12:12:39.254Z,101918.55
2019-05-30T12:15:12.726Z,101925.15
2019-05-30T12:17:46.017Z,101925.15
2019-05-30T12:20:19.719Z,101931.09
2019-05-30T12:22:53.681Z,101932.75
2019-05-30T12:25:27.283Z,101935.73
2019-05-30T12:28:03.712Z,101930.03
2019-05-30T12:30:36.412Z,101932.23
2019-05-30T12:33:10.523Z,101929.09
2019-05-30T12:35:54.430Z,101930.39
2019-05-30T12:38:27.833Z,101929.66
2019-05-30T12:41:02.891Z,101921.47
2019-05-30T12:43:36.572Z,101908.42
2019-05-30T12:46:09.873Z,101919.95
2019-05-30T12:48:43.065Z,101924.50
2019-05-30T12:51:25.234Z,101923.54
2019-05-30T12:53:58.590Z,101927.23
2019-05-30T12:56:32.545Z,101928.58
2019-05-30T12:59:07.132Z,101924.92
2019-05-30T13:01:40.617Z,101940.56
2019-05-30T13:04:14.527Z,101930.64
2019-05-30T13:06:48.172Z,101927.80
2019-05-30T13:09:21.776Z,101937.02
2019-05-30T13:11:56.360Z,101925.11
2019-05-30T13:14:30.017Z,101937.23
2019-05-30T13:17:03.917Z,101934.51
2019-05-30T13:19:59.065Z,101940.18
2019-05-30T13:22:31.096Z,101945.88
2019-05-30T13:25:21.502Z,101942.09
2019-05-30T13:27:55.851Z,101941.99
2019-05-30T13:30:48.759Z,101942.09
2019-05-30T13:33:22.491Z,101940.47
2019-05-30T13:36:10.942Z,101930.09
2019-05-30T13:38:44.850Z,101921.34
2019-05-30T13:41:29.888Z,101920.52
2019-05-30T13:44:06.546Z,101916.57
2019-05-30T13:46:39.311Z,101912.27
2019-05-30T13:49:12.671Z,101910.03
2019-05-30T13:51:58.788Z,101914.66
2019-05-30T13:54:32.449Z,101921.83
2019-05-30T13:57:07.870Z,101920.66
2019-05-30T13:59:41.567Z,101916.29
2019-05-30T14:02:14.886Z,101924.39
2019-05-30T14:04:48.091Z,101927.59
2019-05-30T14:07:21.290Z,101922.65
2019-05-30T14:10:06.475Z,101927.45
2019-05-30T14:12:40.446Z,101927.91
2019-05-30T14:15:14.720Z,101930.72
2019-05-30T14:18:00.929Z,101934.05
2019-05-30T14:20:43.308Z,101928.83
2019-05-30T14:23:17.321Z,101943.03
2019-05-30T14:26:01.253Z,101942.48
2019-05-30T14:28:34.704Z,101945.73
2019-05-30T14:31:08.979Z,101939.36
2019-05-30T14:33:41.724Z,101953.44
2019-05-30T14:36:15.083Z,101944.14
2019-05-30T14:38:57.669Z,101942.78
2019-05-30T14:41:23.961Z,101950.43
2019-05-30T14:43:58.432Z,101960.48
2019-05-30T14:46:40.459Z,101965.06
2019-05-30T14:49:14.411Z,101958.16
2019-05-30T14:51:47.657Z,101966.20
2019-05-30T14:54:21.924Z,101970.48
2019-05-30T14:57:04.774Z,101967.47
2019-05-30T14:59:47.247Z,101965.84
2019-05-30T15:02:21.224Z,101975.92
2019-05-30T15:05:03.661Z,101968.41
2019-05-30T15:07:37.655Z,101967.76
2019-05-30T15:10:21.463Z,101961.56
2019-05-30T15:12:55.098Z,101956.80
2019-05-30T15:15:28.445Z,101958.36
2019-05-30T15:18:01.666Z,101956.19
2019-05-30T15:20:35.047Z,101961.37
2019-05-30T15:23:09.583Z,101958.39
2019-05-30T15:25:44.051Z,101962.80
2019-05-30T15:28:17.807Z,101962.54
2019-05-30T15:30:50.988Z,101959.88
2019-05-30T15:33:34.350Z,101955.86
2019-05-30T15:36:08.565Z,101953.86
2019-05-30T15:38:50.806Z,101952.62
2019-05-30T15:41:24.011Z,101958.87
2019-05-30T15:43:57.754Z,101952.66
2019-05-30T15:46:31.352Z,101963.57
2019-05-30T15:49:04.668Z,101956.57
2019-05-30T15:51:37.846Z,101961.27
2019-05-30T15:54:23.285Z,101955.64
2019-05-30T15:57:05.307Z,101956.45
2019-05-30T15:59:38.853Z,101959.35
2019-05-30T16:02:12.480Z,101961.78
2019-05-30T16:04:46.190Z,101960.22
2019-05-30T16:07:20.809Z,101957.70
2019-05-30T16:09:54.016Z,101952.78
2019-05-30T16:12:39.477Z,101948.72
2019-05-30T16:15:15.908Z,101947.91
2019-05-30T16:17:49.328Z,101946.58
2019-05-30T16:20:22.795Z,101942.84
2019-05-30T16:22:56.574Z,101939.85
2019-05-30T16:25:30.189Z,101933.65
2019-05-30T16:28:03.939Z,101926.08
2019-05-30T16:30:37.124Z,101935.95
2019-05-30T16:33:10.833Z,101932.73
2019-05-30T16:35:44.902Z,101934.36
2019-05-30T16:38:18.139Z,101937.18
2019-05-30T16:40:51.353Z,101939.16
2019-05-30T16:43:24.987Z,101934.31
2019-05-30T16:45:58.178Z,101934.88
2019-05-30T16:48:32.922Z,101929.08
2019-05-30T16:51:06.107Z,101932.06
2019-05-30T16:53:39.887Z,101939.48
2019-05-30T16:56:12.260Z,101933.19
2019-05-30T16:58:45.890Z,101930.48
2019-05-30T17:01:19.846Z,101928.77
2019-05-30T17:04:03.006Z,101927.36
2019-05-30T17:06:36.936Z,101926.42
2019-05-30T17:09:10.291Z,101937.84
2019-05-30T17:11:43.943Z,101926.08
2019-05-30T17:14:17.604Z,101923.36
2019-05-30T17:16:51.205Z,101928.02
2019-05-30T17:19:24.596Z,101926.63
2019-05-30T17:21:58.091Z,101924.17
2019-05-30T17:24:39.875Z,101932.92
2019-05-30T17:27:13.040Z,101932.34
2019-05-30T17:29:46.226Z,101928.49
2019-05-30T17:32:28.255Z,101927.39
2019-05-30T17:35:02.039Z,101932.81
2019-05-30T17:37:35.982Z,101934.95
2019-05-30T17:40:18.671Z,101933.12
2019-05-30T17:42:52.297Z,101929.56
2019-05-30T17:45:27.046Z,101925.53
2019-05-30T17:48:15.558Z,101931.81
2019-05-30T17:50:35.582Z,101937.55
2019-05-30T17:53:08.754Z,101938.11
2019-05-30T17:55:41.941Z,101938.11
2019-05-30T17:58:15.638Z,101940.80
2019-05-30T18:01:03.940Z,101938.05
2019-05-30T18:03:37.211Z,101940.09
2019-05-30T18:06:10.452Z,101941.39
2019-05-30T18:08:52.671Z,101948.75
2019-05-30T18:11:38.235Z,101941.10
2019-05-30T18:14:11.789Z,101945.16
2019-05-30T18:16:45.651Z,101947.84
2019-05-30T18:19:19.451Z,101944.84
2019-05-30T18:21:55.118Z,101949.96
2019-05-30T18:24:46.697Z,101951.91
2019-05-30T18:27:29.753Z,101951.30
2019-05-30T18:30:03.808Z,101951.78
2019-05-30T18:32:36.994Z,101953.89
2019-05-30T18:35:22.183Z,101952.07
2019-05-30T18:38:10.120Z,101954.76
2019-05-30T18:40:43.425Z,101949.48
2019-05-30T18:43:16.758Z,101951.94
2019-05-30T18:45:50.257Z,101950.29
2019-05-30T18:48:23.486Z,101954.34
2019-05-30T18:51:05.810Z,101957.64
2019-05-30T18:53:39.288Z,101948.60
2019-05-30T18:56:12.790Z,101951.03
2019-05-30T18:58:46.286Z,101948.86
2019-05-30T19:01:19.715Z,101949.34
2019-05-30T19:03:53.588Z,101950.70
2019-05-30T19:06:28.211Z,101954.53
2019-05-30T19:09:02.344Z,101957.48
2019-05-30T19:11:36.999Z,101963.18
2019-05-30T19:14:11.205Z,101965.61
2019-05-30T19:16:44.567Z,101966.70
2019-05-30T19:19:18.027Z,101967.19
2019-05-30T19:21:51.653Z,101974.25
2019-05-30T19:24:26.025Z,101974.51
2019-05-30T19:26:59.554Z,101982.09
2019-05-30T19:29:34.888Z,101981.23
2019-05-30T19:32:08.514Z,101981.86
2019-05-30T19:34:41.619Z,101991.05
2019-05-30T19:37:15.607Z,101984.73
2019-05-30T19:39:49.745Z,101994.77
2019-05-30T19:42:31.697Z,101997.82
2019-05-30T19:45:05.154Z,102000.43
2019-05-30T19:47:38.923Z,102001.49
2019-05-30T19:50:12.451Z,101998.19
2019-05-30T19:52:46.958Z,102004.73
2019-05-30T19:55:21.618Z,102009.58
2019-05-30T19:57:55.896Z,102011.53
2019-05-30T20:00:29.863Z,102019.90
2019-05-30T20:03:03.255Z,102014.98
2019-05-30T20:05:36.808Z,102017.95
2019-05-30T20:08:20.472Z,102010.94
2019-05-30T20:10:54.287Z,102012.47
2019-05-30T20:13:37.210Z,102014.46
2019-05-30T20:16:19.381Z,102012.00
2019-05-30T20:18:53.044Z,102010.56
2019-05-30T20:21:26.841Z,102007.58
2019-05-30T20:24:00.033Z,102006.70
2019-05-30T20:26:34.412Z,102005.05
2019-05-30T20:29:16.487Z,102004.94
2019-05-30T20:31:59.816Z,102002.70
2019-05-30T20:34:34.831Z,102006.36
2019-05-30T20:37:08.774Z,102008.02
2019-05-30T20:39:43.046Z,102003.42
2019-05-30T20:42:19.465Z,102005.30
2019-05-30T20:44:51.695Z,102008.86
2019-05-30T20:47:25.772Z,102009.37
2019-05-30T20:49:59.485Z,102007.45
2019-05-30T20:52:33.243Z,102016.94
2019-05-30T20:55:07.392Z,102010.66
2019-05-30T20:57:49.365Z,102014.00
2019-05-30T21:00:26.043Z,102016.34
2019-05-30T21:02:59.596Z,102015.75
2019-05-30T21:05:33.627Z,102015.23
2019-05-30T21:08:07.039Z,102018.48
2019-05-30T21:10:41.260Z,102016.09
2019-05-30T21:13:23.351Z,102012.05
2019-05-30T21:15:59.271Z,102013.84
2019-05-30T21:18:52.107Z,102022.08
2019-05-30T21:21:35.877Z,102024.21
2019-05-30T21:24:09.894Z,102024.62
2019-05-30T21:26:43.251Z,102028.12
2019-05-30T21:29:17.141Z,102029.73
2019-05-30T21:31:50.694Z,102024.84
2019-05-30T21:34:24.236Z,102032.20
2019-05-30T21:36:57.444Z,102033.52
2019-05-30T21:39:31.164Z,102030.53
2019-05-30T21:42:04.398Z,102028.03
2019-05-30T21:44:38.459Z,102032.66
2019-05-30T21:47:12.094Z,102025.31
2019-05-30T21:49:45.271Z,102015.44
2019-05-30T21:52:18.517Z,102027.27
2019-05-30T21:55:03.235Z,102031.38
2019-05-30T21:57:35.605Z,102027.17
2019-05-30T22:00:12.491Z,102025.81
2019-05-30T22:02:50.776Z,102028.19
2019-05-30T22:05:24.465Z,102032.31
2019-05-30T22:07:57.872Z,102034.73
2019-05-30T22:10:31.524Z,102034.22
2019-05-30T22:13:09.495Z,102025.22
2019-05-30T22:15:41.611Z,102026.31
2019-05-30T22:18:15.930Z,102024.36
2019-05-30T22:20:49.929Z,102030.87
2019-05-30T22:23:32.208Z,102022.46
2019-05-30T22:26:05.513Z,102022.40
2019-05-30T22:28:39.088Z,102027.29
2019-05-30T22:31:12.077Z,102022.11
2019-05-30T22:33:54.112Z,102015.91
2019-05-30T22:36:27.795Z,102020.16
2019-05-30T22:39:01.015Z,102016.84
2019-05-30T22:41:36.485Z,102019.52
2019-05-30T22:44:10.223Z,102019.22
2019-05-30T22:46:44.079Z,102020.28
2019-05-30T22:49:17.297Z,102017.77
2019-05-30T22:51:51.161Z,102013.89
2019-05-30T22:54:24.728Z,102018.23
2019-05-30T22:57:01.335Z,102009.27
2019-05-30T22:59:33.218Z,102010.02
2019-05-30T23:02:06.413Z,102005.40
2019-05-30T23:04:39.895Z,102003.23
2019-05-30T23:07:22.329Z,102000.27
2019-05-30T23:10:05.381Z,101995.64
2019-05-30T23:12:54.065Z,101989.05
2019-05-30T23:15:36.535Z,101984.44
2019-05-30T23:18:10.000Z,101984.44
2019-05-30T23:20:43.923Z,101995.11
2019-05-30T23:23:18.749Z,101995.36
2019-05-30T23:25:53.331Z,101990.72
2019-05-30T23:28:27.867Z,101987.31
2019-05-30T23:31:10.217Z,101987.91
2019-05-30T23:33:43.731Z,101986.65
2019-05-30T23:36:17.707Z,101981.12
2019-05-30T23:38:51.308Z,101981.02
2019-05-30T23:41:24.693Z,101977.36
2019-05-30T23:44:10.542Z,101974.80
2019-05-30T23:46:32.937Z,101977.70
2019-05-30T23:49:07.368Z,101975.43
2019-05-30T23:51:40.577Z,101969.20
2019-05-30T23:54:14.278Z,101967.18
2019-05-30T23:56:47.816Z,101966.06
2019-05-30T23:59:22.472Z,101971.20
